createdAt,value
2019-04-25T00:00:49.425Z,5.35
2019-04-25T00:03:19.524Z,3.98
2019-04-25T00:05:48.072Z,5.17
2019-04-25T00:08:17.002Z,5.17
2019-04-25T00:10:45.482Z,5.05
2019-04-25T00:13:15.073Z,5.20
2019-04-25T00:15:44.972Z,6.35
2019-04-25T00:18:14.174Z,5.00
2019-04-25T00:20:44.686Z,3.98
2019-04-25T00:23:17.962Z,4.17
2019-04-25T00:25:49.017Z,4.92
2019-04-25T00:28:17.926Z,5.00
2019-04-25T00:30:46.395Z,4.37
2019-04-25T00:33:15.124Z,4.00
2019-04-25T00:35:44.638Z,5.75
2019-04-25T00:38:13.876Z,6.17
2019-04-25T00:40:43.527Z,3.72
2019-04-25T00:43:12.739Z,5.25
2019-04-25T00:45:42.465Z,7.95
2019-04-25T00:48:12.263Z,5.70
2019-04-25T00:50:42.484Z,6.92
2019-04-25T00:53:11.392Z,9.80
2019-04-25T00:55:41.425Z,9.58
2019-04-25T00:58:11.917Z,9.48
2019-04-25T01:00:58.127Z,11.00
2019-04-25T01:03:31.707Z,8.30
2019-04-25T01:06:03.475Z,10.90
2019-04-25T01:08:31.964Z,9.53
2019-04-25T01:11:01.665Z,9.00
2019-04-25T01:13:32.093Z,8.18
2019-04-25T01:16:03.810Z,6.37
2019-04-25T01:18:31.444Z,11.28
2019-04-25T01:20:59.994Z,6.55
2019-04-25T01:23:28.462Z,9.78
2019-04-25T01:25:57.066Z,6.30
2019-04-25T01:28:25.611Z,7.15
2019-04-25T01:30:55.088Z,7.22
2019-04-25T01:33:23.968Z,7.00
2019-04-25T01:35:54.794Z,5.87
2019-04-25T01:38:26.095Z,6.97
2019-04-25T01:40:58.688Z,6.15
2019-04-25T01:43:45.012Z,5.28
2019-04-25T01:46:15.245Z,6.17
2019-04-25T01:48:43.785Z,5.45
2019-04-25T01:51:14.096Z,6.78
2019-04-25T01:53:44.024Z,6.20
2019-04-25T01:56:15.493Z,7.80
2019-04-25T01:58:44.049Z,7.05
2019-04-25T02:01:16.943Z,5.90
2019-04-25T02:03:45.389Z,7.20
2019-04-25T02:06:13.858Z,5.08
2019-04-25T02:08:43.893Z,6.60
2019-04-25T02:11:20.233Z,7.37
2019-04-25T02:13:48.756Z,6.12
2019-04-25T02:16:17.221Z,8.10
2019-04-25T02:18:45.782Z,7.08
2019-04-25T02:21:14.367Z,5.12
2019-04-25T02:23:44.221Z,5.58
2019-04-25T02:26:16.770Z,5.78
2019-04-25T02:28:43.714Z,7.58
2019-04-25T02:31:15.373Z,5.83
2019-04-25T02:33:44.324Z,4.72
2019-04-25T02:36:15.124Z,7.83
2019-04-25T02:38:44.252Z,5.15
2019-04-25T02:41:14.692Z,5.03
2019-04-25T02:43:45.056Z,4.65
2019-04-25T02:46:21.282Z,5.85
2019-04-25T02:48:51.472Z,4.35
2019-04-25T02:51:24.533Z,5.20
2019-04-25T02:53:55.903Z,5.07
2019-04-25T02:56:31.272Z,6.00
2019-04-25T02:58:56.466Z,6.50
2019-04-25T03:01:26.291Z,8.05
2019-04-25T03:03:55.007Z,7.62
2019-04-25T03:06:25.023Z,6.03
2019-04-25T03:08:54.394Z,5.20
2019-04-25T03:11:24.536Z,8.10
2019-04-25T03:13:54.641Z,8.25
2019-04-25T03:16:27.122Z,8.45
2019-04-25T03:18:57.932Z,6.20
2019-04-25T03:21:35.254Z,10.28
2019-04-25T03:24:06.159Z,6.78
2019-04-25T03:26:40.355Z,7.08
2019-04-25T03:29:06.162Z,6.80
2019-04-25T03:31:35.171Z,5.95
2019-04-25T03:34:09.804Z,7.87
2019-04-25T03:36:34.843Z,6.85
2019-04-25T03:39:05.295Z,7.97
2019-04-25T03:41:36.353Z,7.55
2019-04-25T03:44:05.674Z,6.08
2019-04-25T03:46:35.092Z,6.55
2019-04-25T03:49:04.928Z,9.53
2019-04-25T03:51:34.020Z,4.78
2019-04-25T03:54:04.488Z,5.72
2019-04-25T03:56:33.388Z,8.03
2019-04-25T03:59:04.808Z,6.58
2019-04-25T04:01:34.130Z,6.03
2019-04-25T04:04:04.563Z,6.58
2019-04-25T04:06:34.038Z,8.10
2019-04-25T04:09:05.554Z,7.55
2019-04-25T04:11:34.561Z,8.08
2019-04-25T04:14:04.913Z,7.53
2019-04-25T04:16:34.867Z,7.58
2019-04-25T04:19:04.875Z,6.37
2019-04-25T04:21:35.294Z,5.95
2019-04-25T04:24:06.102Z,9.85
2019-04-25T04:26:34.818Z,8.88
2019-04-25T04:29:04.658Z,7.45
2019-04-25T04:31:35.146Z,7.50
2019-04-25T04:34:03.854Z,7.97
2019-04-25T04:36:33.818Z,7.12
2019-04-25T04:39:03.912Z,7.25
2019-04-25T04:41:33.879Z,7.58
2019-04-25T04:44:04.011Z,8.50
2019-04-25T04:46:34.065Z,11.48
2019-04-25T04:49:03.943Z,5.97
2019-04-25T04:51:33.594Z,6.90
2019-04-25T04:54:03.407Z,8.05
2019-04-25T04:56:34.055Z,6.62
2019-04-25T04:59:03.702Z,7.05
2019-04-25T05:01:36.845Z,9.60
2019-04-25T05:04:14.541Z,8.37
2019-04-25T05:06:45.082Z,6.72
2019-04-25T05:09:16.403Z,8.25
2019-04-25T05:11:45.200Z,11.08
2019-04-25T05:14:14.951Z,6.70
2019-04-25T05:16:44.024Z,6.80
2019-04-25T05:19:14.662Z,5.97
2019-04-25T05:21:43.576Z,9.53
2019-04-25T05:24:16.024Z,8.03
2019-04-25T05:26:44.086Z,7.00
2019-04-25T05:29:15.514Z,11.05
2019-04-25T05:31:45.631Z,8.68
2019-04-25T05:34:15.717Z,9.28
2019-04-25T05:36:44.577Z,5.05
2019-04-25T05:39:15.671Z,5.92
2019-04-25T05:41:54.011Z,8.40
2019-04-25T05:44:24.494Z,8.40
2019-04-25T05:46:54.080Z,9.70
2019-04-25T05:49:24.317Z,9.33
2019-04-25T05:51:53.879Z,9.80
2019-04-25T05:54:24.175Z,7.33
2019-04-25T05:56:53.765Z,7.28
2019-04-25T05:59:22.498Z,6.47
2019-04-25T06:01:51.051Z,9.05
2019-04-25T06:04:19.879Z,8.28
2019-04-25T06:06:48.451Z,8.83
2019-04-25T06:09:19.324Z,10.43
2019-04-25T06:12:04.777Z,7.17
2019-04-25T06:14:33.628Z,7.35
2019-04-25T06:17:03.815Z,7.00
2019-04-25T06:19:43.506Z,8.35
2019-04-25T06:22:15.176Z,11.73
2019-04-25T06:24:45.586Z,8.38
2019-04-25T06:27:15.815Z,8.48
2019-04-25T06:29:57.675Z,8.63
2019-04-25T06:32:16.637Z,10.13
2019-04-25T06:34:45.371Z,9.85
2019-04-25T06:37:13.987Z,7.58
2019-04-25T06:39:44.160Z,8.00
2019-04-25T06:42:13.856Z,8.80
2019-04-25T06:44:44.372Z,8.33
2019-04-25T06:47:24.813Z,8.88
2019-04-25T06:49:54.465Z,10.28
2019-04-25T06:52:26.236Z,4.97
2019-04-25T06:54:53.322Z,7.62
2019-04-25T06:57:22.155Z,8.75
2019-04-25T06:59:50.823Z,7.53
2019-04-25T07:02:19.314Z,8.28
2019-04-25T07:04:47.794Z,7.90
2019-04-25T07:07:16.286Z,7.03
2019-04-25T07:09:44.855Z,6.40
2019-04-25T07:12:13.595Z,7.92
2019-04-25T07:14:43.869Z,6.22
2019-04-25T07:17:14.319Z,5.90
2019-04-25T07:19:44.094Z,6.92
2019-04-25T07:22:15.214Z,7.90
2019-04-25T07:24:43.982Z,8.23
2019-04-25T07:27:26.736Z,7.25
2019-04-25T07:30:04.043Z,13.18
2019-04-25T07:32:35.551Z,7.70
2019-04-25T07:35:06.167Z,7.50
2019-04-25T07:37:37.237Z,5.80
2019-04-25T07:40:07.990Z,6.50
2019-04-25T07:42:36.497Z,6.58
2019-04-25T07:45:07.586Z,7.17
2019-04-25T07:47:36.449Z,6.85
2019-04-25T07:50:07.523Z,5.15
2019-04-25T07:52:37.726Z,7.85
2019-04-25T07:55:06.830Z,6.28
2019-04-25T07:57:35.905Z,5.12
2019-04-25T08:00:10.684Z,6.75
2019-04-25T08:02:39.886Z,5.47
2019-04-25T08:05:14.420Z,7.65
2019-04-25T08:07:43.680Z,5.55
2019-04-25T08:10:14.728Z,6.80
2019-04-25T08:12:45.992Z,5.60
2019-04-25T08:15:17.492Z,6.95
2019-04-25T08:17:56.626Z,4.75
2019-04-25T08:20:26.347Z,6.05
2019-04-25T08:22:58.858Z,5.85
2019-04-25T08:25:25.732Z,4.33
2019-04-25T08:27:55.235Z,6.45
2019-04-25T08:30:24.308Z,7.67
2019-04-25T08:32:54.071Z,6.78
2019-04-25T08:35:24.113Z,5.33
2019-04-25T08:37:53.754Z,7.05
2019-04-25T08:40:23.803Z,9.28
2019-04-25T08:42:53.740Z,6.00
2019-04-25T08:45:24.499Z,6.80
2019-04-25T08:47:53.779Z,6.53
2019-04-25T08:50:31.292Z,6.03
2019-04-25T08:52:57.662Z,4.47
2019-04-25T08:55:45.874Z,7.15
2019-04-25T08:58:24.834Z,6.33
2019-04-25T09:01:06.807Z,7.25
2019-04-25T09:03:49.488Z,8.08
2019-04-25T09:06:18.153Z,4.92
2019-04-25T09:08:46.720Z,6.47
2019-04-25T09:11:15.232Z,4.75
2019-04-25T09:13:44.959Z,4.17
2019-04-25T09:16:15.467Z,8.83
2019-04-25T09:18:45.378Z,5.55
2019-04-25T09:21:14.848Z,6.25
2019-04-25T09:23:43.810Z,5.92
2019-04-25T09:26:14.317Z,7.22
2019-04-25T09:28:45.256Z,6.12
2019-04-25T09:31:14.042Z,5.08
2019-04-25T09:33:45.354Z,6.72
2019-04-25T09:36:14.198Z,5.17
2019-04-25T09:38:47.988Z,7.15
2019-04-25T09:41:15.335Z,3.50
2019-04-25T09:43:45.718Z,4.40
2019-04-25T09:46:18.500Z,5.05
2019-04-25T09:48:51.861Z,6.62
2019-04-25T09:51:24.973Z,4.20
2019-04-25T09:53:56.894Z,4.12
2019-04-25T09:56:27.318Z,9.85
2019-04-25T09:59:05.696Z,5.70
2019-04-25T10:01:36.376Z,7.08
2019-04-25T10:04:04.659Z,5.90
2019-04-25T10:06:33.359Z,5.15
2019-04-25T10:09:01.948Z,6.03
2019-04-25T10:11:30.483Z,5.97
2019-04-25T10:14:21.548Z,5.65
2019-04-25T10:16:50.020Z,5.03
2019-04-25T10:19:18.628Z,4.12
2019-04-25T10:21:47.652Z,8.73
2019-04-25T10:24:16.528Z,10.20
2019-04-25T10:26:45.433Z,5.42
2019-04-25T10:29:14.996Z,5.85
2019-04-25T10:31:44.326Z,5.65
2019-04-25T10:34:14.238Z,5.08
2019-04-25T10:36:45.299Z,4.50
2019-04-25T10:39:14.484Z,6.22
2019-04-25T10:41:46.166Z,7.00
2019-04-25T10:44:14.205Z,7.45
2019-04-25T10:46:45.683Z,6.78
2019-04-25T10:49:14.926Z,5.05
2019-04-25T10:51:44.713Z,5.10
2019-04-25T10:54:15.671Z,4.08
2019-04-25T10:56:45.878Z,4.55
2019-04-25T10:59:14.630Z,4.35
2019-04-25T11:01:45.065Z,5.90
2019-04-25T11:04:15.162Z,6.40
2019-04-25T11:06:45.411Z,6.45
2019-04-25T11:09:18.565Z,4.65
2019-04-25T11:11:48.114Z,5.80
2019-04-25T11:14:17.378Z,5.00
2019-04-25T11:16:46.600Z,4.08
2019-04-25T11:19:18.540Z,7.10
2019-04-25T11:21:47.738Z,5.60
2019-04-25T11:24:16.555Z,5.42
2019-04-25T11:26:48.342Z,4.67
2019-04-25T11:29:16.117Z,5.05
2019-04-25T11:31:47.325Z,4.65
2019-04-25T11:34:17.400Z,5.53
2019-04-25T11:36:46.356Z,4.60
2019-04-25T11:39:33.624Z,6.10
2019-04-25T11:42:02.517Z,4.83
2019-04-25T11:44:31.034Z,9.08
2019-04-25T11:46:59.652Z,5.55
2019-04-25T11:49:28.140Z,10.15
2019-04-25T11:51:56.697Z,3.30
2019-04-25T11:54:25.217Z,5.12
2019-04-25T11:56:54.755Z,6.90
2019-04-25T11:59:24.012Z,3.08
2019-04-25T12:01:52.549Z,3.77
2019-04-25T12:04:21.079Z,6.05
2019-04-25T12:06:49.596Z,4.72
2019-04-25T12:09:19.074Z,7.75
2019-04-25T12:11:48.528Z,4.50
2019-04-25T12:14:17.484Z,6.92
2019-04-25T12:16:48.517Z,7.58
2019-04-25T12:19:16.287Z,6.92
2019-04-25T12:21:45.770Z,7.47
2019-04-25T12:24:14.556Z,6.75
2019-04-25T12:26:45.312Z,8.05
2019-04-25T12:29:14.379Z,6.95
2019-04-25T12:31:45.513Z,6.17
2019-04-25T12:34:14.195Z,5.95
2019-04-25T12:36:44.330Z,8.98
2019-04-25T12:39:14.024Z,7.12
2019-04-25T12:41:44.197Z,8.53
2019-04-25T12:44:21.570Z,8.33
2019-04-25T12:46:52.462Z,8.28
2019-04-25T12:49:21.881Z,5.97
2019-04-25T12:51:50.680Z,7.72
2019-04-25T12:54:19.427Z,6.67
2019-04-25T12:56:47.874Z,8.05
2019-04-25T12:59:16.328Z,6.20
2019-04-25T13:01:44.857Z,5.40
2019-04-25T13:04:13.316Z,7.30
2019-04-25T13:06:43.319Z,8.55
2019-04-25T13:09:13.168Z,4.67
2019-04-25T13:11:43.363Z,5.12
2019-04-25T13:14:12.035Z,8.25
2019-04-25T13:16:40.545Z,5.40
2019-04-25T13:19:16.921Z,6.50
2019-04-25T13:21:39.281Z,6.50
2019-04-25T13:24:07.779Z,5.60
2019-04-25T13:26:50.158Z,6.83
2019-04-25T13:29:36.231Z,5.67
2019-04-25T13:32:09.159Z,5.90
2019-04-25T13:34:39.291Z,5.75
2019-04-25T13:37:08.945Z,5.95
2019-04-25T13:39:37.517Z,5.65
2019-04-25T13:42:06.739Z,4.53
2019-04-25T13:44:35.485Z,4.40
2019-04-25T13:47:04.260Z,5.17
2019-04-25T13:49:32.711Z,3.47
2019-04-25T13:52:02.922Z,5.33
2019-04-25T13:54:31.539Z,5.05
2019-04-25T13:57:00.062Z,3.55
2019-04-25T13:59:28.617Z,3.65
2019-04-25T14:01:58.741Z,4.10
2019-04-25T14:04:28.074Z,4.78
2019-04-25T14:06:56.766Z,3.00
2019-04-25T14:09:25.914Z,3.90
2019-04-25T14:11:54.683Z,4.37
2019-04-25T14:14:23.183Z,4.22
2019-04-25T14:16:54.600Z,2.50
2019-04-25T14:19:34.791Z,3.00
2019-04-25T14:22:05.328Z,4.00
2019-04-25T14:24:35.668Z,3.30
2019-04-25T14:27:04.913Z,2.60
2019-04-25T14:29:33.362Z,3.52
2019-04-25T14:32:03.303Z,4.22
2019-04-25T14:34:33.696Z,3.15
2019-04-25T14:37:02.123Z,3.20
2019-04-25T14:39:30.676Z,3.85
2019-04-25T14:41:59.190Z,3.52
2019-04-25T14:44:28.579Z,3.85
2019-04-25T14:46:57.173Z,3.12
2019-04-25T14:49:26.297Z,3.62
2019-04-25T14:51:54.884Z,2.90
2019-04-25T14:54:43.046Z,4.45
2019-04-25T14:57:13.251Z,1.85
2019-04-25T14:59:41.776Z,3.22
2019-04-25T15:02:10.442Z,3.47
2019-04-25T15:04:38.913Z,2.60
2019-04-25T15:07:07.434Z,2.65
2019-04-25T15:09:35.933Z,2.50
2019-04-25T15:12:04.459Z,1.77
2019-04-25T15:14:33.531Z,2.00
2019-04-25T15:17:03.548Z,2.42
2019-04-25T15:19:32.064Z,2.58
2019-04-25T15:22:00.548Z,3.25
2019-04-25T15:24:29.029Z,2.45
2019-04-25T15:26:57.553Z,2.25
2019-04-25T15:29:26.557Z,1.12
2019-04-25T15:31:56.368Z,2.05
2019-04-25T15:34:27.611Z,2.85
2019-04-25T15:37:06.949Z,2.22
2019-04-25T15:39:46.043Z,3.15
2019-04-25T15:42:19.120Z,2.15
2019-04-25T15:45:00.822Z,2.30
2019-04-25T15:47:31.844Z,2.17
2019-04-25T15:50:00.888Z,2.02
2019-04-25T15:52:29.350Z,2.12
2019-04-25T15:55:07.082Z,2.08
2019-04-25T15:57:28.160Z,1.92
2019-04-25T15:59:56.673Z,3.25
2019-04-25T16:02:25.355Z,4.83
2019-04-25T16:04:54.181Z,3.47
2019-04-25T16:07:27.128Z,2.75
2019-04-25T16:09:55.794Z,2.75
2019-04-25T16:12:24.437Z,2.98
2019-04-25T16:14:52.908Z,3.05
2019-04-25T16:17:21.462Z,3.22
2019-04-25T16:19:49.918Z,1.92
2019-04-25T16:22:18.501Z,3.87
2019-04-25T16:24:47.069Z,3.65
2019-04-25T16:27:15.669Z,3.10
2019-04-25T16:29:44.173Z,3.45
2019-04-25T16:32:20.375Z,7.60
2019-04-25T16:34:44.534Z,3.58
2019-04-25T16:37:13.109Z,3.98
2019-04-25T16:39:43.222Z,3.35
2019-04-25T16:42:12.460Z,4.37
2019-04-25T16:44:41.338Z,3.72
2019-04-25T16:47:11.244Z,4.92
2019-04-25T16:49:39.737Z,5.05
2019-04-25T16:52:09.933Z,2.85
2019-04-25T16:54:38.449Z,4.08
2019-04-25T16:57:06.941Z,3.95
2019-04-25T16:59:35.589Z,3.40
2019-04-25T17:02:04.257Z,2.87
2019-04-25T17:04:33.202Z,2.85
2019-04-25T17:07:02.173Z,3.72
2019-04-25T17:09:31.780Z,4.30
2019-04-25T17:12:00.562Z,3.37
2019-04-25T17:14:33.504Z,3.98
2019-04-25T17:17:12.633Z,2.83
2019-04-25T17:19:54.391Z,3.45
2019-04-25T17:22:23.293Z,3.12
2019-04-25T17:24:51.826Z,3.42
2019-04-25T17:27:21.069Z,5.12
2019-04-25T17:29:49.690Z,3.65
2019-04-25T17:32:22.708Z,3.52
2019-04-25T17:34:52.999Z,3.97
2019-04-25T17:37:23.311Z,3.95
2019-04-25T17:39:56.143Z,4.42
2019-04-25T17:42:24.679Z,4.95
2019-04-25T17:44:53.191Z,3.87
2019-04-25T17:47:21.757Z,5.33
2019-04-25T17:49:50.342Z,2.92
2019-04-25T17:52:18.973Z,4.12
2019-04-25T17:54:47.571Z,6.17
2019-04-25T17:57:16.588Z,5.50
2019-04-25T17:59:45.125Z,4.75
2019-04-25T18:02:13.723Z,7.05
2019-04-25T18:04:42.565Z,4.87
2019-04-25T18:07:11.200Z,5.87
2019-04-25T18:09:40.865Z,4.45
2019-04-25T18:12:09.446Z,5.12
2019-04-25T18:14:38.461Z,5.28
2019-04-25T18:17:07.834Z,4.40
2019-04-25T18:19:38.596Z,3.98
2019-04-25T18:22:15.374Z,6.15
2019-04-25T18:25:08.830Z,7.78
2019-04-25T18:27:39.483Z,6.72
2019-04-25T18:30:08.571Z,4.87
2019-04-25T18:32:39.171Z,5.40
2019-04-25T18:35:09.850Z,7.15
2019-04-25T18:37:51.873Z,6.15
2019-04-25T18:40:28.030Z,5.40
2019-04-25T18:43:00.791Z,4.95
2019-04-25T18:45:31.097Z,4.30
2019-04-25T18:47:59.706Z,6.35
2019-04-25T18:50:29.919Z,5.35
2019-04-25T18:53:01.892Z,6.42
2019-04-25T18:55:35.032Z,4.85
2019-04-25T18:58:08.280Z,3.70
2019-04-25T19:00:44.389Z,3.65
2019-04-25T19:03:32.666Z,5.83
2019-04-25T19:06:02.934Z,4.75
2019-04-25T19:08:32.073Z,5.12
2019-04-25T19:11:01.476Z,5.33
2019-04-25T19:13:30.336Z,5.35
2019-04-25T19:15:58.874Z,6.00
2019-04-25T19:18:27.501Z,4.55
2019-04-25T19:20:56.290Z,4.35
2019-04-25T19:23:24.932Z,5.92
2019-04-25T19:25:53.707Z,5.40
2019-04-25T19:28:22.286Z,6.12
2019-04-25T19:30:51.420Z,6.47
2019-04-25T19:33:21.855Z,5.87
2019-04-25T19:35:50.458Z,4.12
2019-04-25T19:38:19.040Z,4.42
2019-04-25T19:40:57.334Z,5.70
2019-04-25T19:43:29.656Z,6.17
2019-04-25T19:45:58.289Z,7.87
2019-04-25T19:48:26.815Z,5.85
2019-04-25T19:50:55.449Z,4.53
2019-04-25T19:53:24.012Z,4.65
2019-04-25T19:55:52.814Z,5.42
2019-04-25T19:58:21.323Z,6.50
2019-04-25T20:00:51.078Z,4.95
2019-04-25T20:03:21.334Z,4.15
2019-04-25T20:05:54.251Z,6.10
2019-04-25T20:08:40.878Z,5.10
2019-04-25T20:11:20.167Z,5.33
2019-04-25T20:13:49.220Z,3.77
2019-04-25T20:16:19.463Z,5.17
2019-04-25T20:18:47.970Z,6.12
2019-04-25T20:21:16.514Z,5.08
2019-04-25T20:23:46.355Z,4.55
2019-04-25T20:26:15.263Z,4.97
2019-04-25T20:28:44.849Z,5.05
2019-04-25T20:31:13.534Z,7.30
2019-04-25T20:33:42.011Z,5.80
2019-04-25T20:36:17.509Z,4.40
2019-04-25T20:38:40.703Z,6.15
2019-04-25T20:41:09.638Z,8.83
2019-04-25T20:43:38.248Z,4.45
2019-04-25T20:46:06.693Z,4.85
2019-04-25T20:48:35.205Z,6.62
2019-04-25T20:51:03.838Z,7.53
2019-04-25T20:53:32.318Z,6.17
2019-04-25T20:56:00.855Z,5.03
2019-04-25T20:58:29.328Z,5.58
2019-04-25T21:00:59.459Z,4.30
2019-04-25T21:03:27.956Z,5.40
2019-04-25T21:05:58.157Z,4.92
2019-04-25T21:08:26.641Z,4.62
2019-04-25T21:10:55.803Z,6.05
2019-04-25T21:13:28.894Z,5.85
2019-04-25T21:16:15.117Z,4.67
2019-04-25T21:18:51.327Z,5.42
2019-04-25T21:21:19.820Z,5.10
2019-04-25T21:23:48.452Z,4.40
2019-04-25T21:26:17.067Z,4.12
2019-04-25T21:28:45.651Z,4.58
2019-04-25T21:31:14.245Z,3.98
2019-04-25T21:33:42.817Z,4.58
2019-04-25T21:36:12.019Z,6.17
2019-04-25T21:38:43.396Z,5.08
2019-04-25T21:41:13.967Z,5.50
2019-04-25T21:43:44.430Z,5.60
2019-04-25T21:46:13.153Z,6.22
2019-04-25T21:48:42.137Z,6.25
2019-04-25T21:51:28.314Z,4.62
2019-04-25T21:53:57.282Z,5.17
2019-04-25T21:56:26.353Z,5.08
2019-04-25T21:58:55.631Z,5.05
2019-04-25T22:01:27.498Z,7.37
2019-04-25T22:03:56.496Z,7.85
2019-04-25T22:06:25.649Z,6.50
2019-04-25T22:08:54.494Z,5.62
2019-04-25T22:11:24.018Z,6.60
2019-04-25T22:13:52.931Z,5.35
2019-04-25T22:16:21.761Z,5.25
2019-04-25T22:18:50.513Z,5.50
2019-04-25T22:21:19.990Z,5.90
2019-04-25T22:23:48.651Z,5.35
2019-04-25T22:26:17.284Z,8.18
2019-04-25T22:28:46.118Z,5.65
2019-04-25T22:31:16.901Z,5.60
2019-04-25T22:33:59.756Z,7.25
2019-04-25T22:36:29.466Z,8.47
2019-04-25T22:39:11.153Z,6.47
2019-04-25T22:41:46.244Z,7.47
2019-04-25T22:44:15.632Z,6.42
2019-04-25T22:46:44.651Z,8.33
2019-04-25T22:49:13.238Z,7.00
2019-04-25T22:51:41.837Z,6.60
2019-04-25T22:54:11.800Z,6.67
2019-04-25T22:56:40.588Z,8.18
2019-04-25T22:59:09.703Z,6.45
2019-04-25T23:01:57.783Z,5.00
2019-04-25T23:04:36.224Z,6.62
2019-04-25T23:07:05.855Z,7.22
2019-04-25T23:09:36.137Z,6.55
2019-04-25T23:12:06.665Z,7.45
2019-04-25T23:14:35.555Z,6.10
2019-04-25T23:17:05.049Z,7.25
2019-04-25T23:19:35.915Z,6.78
2019-04-25T23:22:05.644Z,7.87
2019-04-25T23:24:35.967Z,6.97
2019-04-25T23:27:22.660Z,6.40
2019-04-25T23:29:51.573Z,6.40
2019-04-25T23:32:20.630Z,6.35
2019-04-25T23:34:49.565Z,7.40
2019-04-25T23:37:18.165Z,7.87
2019-04-25T23:39:46.973Z,7.90
2019-04-25T23:42:15.642Z,8.28
2019-04-25T23:44:44.718Z,6.90
2019-04-25T23:47:14.301Z,7.72
2019-04-25T23:49:42.994Z,8.10
2019-04-25T23:52:12.930Z,6.83
2019-04-25T23:54:41.494Z,8.33
2019-04-25T23:57:11.062Z,7.67
2019-04-25T23:59:39.928Z,7.20
